Shaw Air Force Base
KSSC : rendu visible

Aérodrome :











RETROUVEZ-NOUS SUR...

 
LOGIN :

S'inscrire | Disclaimer

   EN    FR    IT 

 









Légende :    VFR   VFR Marginal   IFR   IFR Intensif   IFR Très Intensif
Visi : 
Plafond : 
>= 8 km
>= 3000ft
5 à 8 km
1000 à 3000 ft
1500m à 5 km
500 à 1000 ft
800 à 1500m
200 à 500 ft
< 800m
< 200 ft
Symboles :   Orages  Brouillard  Fortes neiges  Fortes précipitations  Vent > 20 kt






- Altitude de l'aérodrome : 241 ft


KSSC - Shaw Air Force Base

DERNIER METAR :
  • 311956Z AUTO 08010G14KT 10SM SCT043 SCT180 28/17 A3006 RMK AO2 SLP179

METARs EXPIRÉS :
  • 311856Z AUTO 03010KT 10SM FEW080 FEW160 SCT190 27/18 A3007 RMK AO2 SLP182 T02710184 $
  • 311801Z AUTO 05012KT 10SM SCT029 BKN035 BKN070 BKN170 26/19 A3008 RMK AO2 SLP186 $
  • 311756Z AUTO 03011KT 10SM BKN029 BKN065 26/19 A3007 RMK AO2 SLP182

TAF AMD TAF KSSC
Valide du 31 à 18h jusqu'au 01 à 23h UTC


311805Z 3118/0123 04009KT 9999 SCT030 BKN050 QNH3006INS
BECMG 0101/0102 VRB06KT 9999 SCT040 QNH3011INS TX27/3120Z TN16/0110Z LAST NO AMDS AFT 3118 NEXT 0107
FIR KZJX / Amérique du Nord



MET'MAP, la Météo Aéronautique d'un coup d'oeil ! - Copyright ORBIFLY Décembre 2007 - Disclaimer

ORBIFLY MET'MAP TEAM :

Programmation & Développement : Alexandra Zaïnal
Sur une idée originale de : Baudouin d'Aumeries
Assistance à la programmation : Marc-Olivier Méhu
Soutien technique & logistique : Manuel Goepfert

Contact : metmap@orbifly.com




SOURCES & CREDITS :

   NOAA       Earth
Advisory